sensor_id;sensor_type;location;lat;lon;timestamp;P1;durP1;ratioP1;P2;durP2;ratioP2
24843;SDS011;12921;51.392;12.240;2023-04-01T00:00:45;0.32;;;0.32;;
24843;SDS011;12921;51.392;12.240;2023-04-01T00:03:11;0.17;;;0.17;;
24843;SDS011;12921;51.392;12.240;2023-04-01T00:05:37;0.47;;;0.47;;
24843;SDS011;12921;51.392;12.240;2023-04-01T00:08:03;0.30;;;0.30;;
24843;SDS011;12921;51.392;12.240;2023-04-01T00:10:29;0.93;;;0.93;;
24843;SDS011;12921;51.392;12.240;2023-04-01T00:12:55;0.70;;;0.70;;
24843;SDS011;12921;51.392;12.240;2023-04-01T00:15:21;0.28;;;0.28;;
24843;SDS011;12921;51.392;12.240;2023-04-01T00:17:47;0.30;;;0.30;;
24843;SDS011;12921;51.392;12.240;2023-04-01T00:20:14;0.32;;;0.32;;
24843;SDS011;12921;51.392;12.240;2023-04-01T00:22:40;0.40;;;0.40;;
24843;SDS011;12921;51.392;12.240;2023-04-01T00:25:06;3.20;;;0.68;;
24843;SDS011;12921;51.392;12.240;2023-04-01T00:27:33;0.63;;;0.50;;
24843;SDS011;12921;51.392;12.240;2023-04-01T00:29:59;0.32;;;0.32;;
24843;SDS011;12921;51.392;12.240;2023-04-01T00:32:26;0.38;;;0.38;;
24843;SDS011;12921;51.392;12.240;2023-04-01T00:34:52;1.80;;;1.02;;
24843;SDS011;12921;51.392;12.240;2023-04-01T00:37:19;2.35;;;0.55;;
24843;SDS011;12921;51.392;12.240;2023-04-01T00:39:46;3.42;;;0.68;;
24843;SDS011;12921;51.392;12.240;2023-04-01T00:42:12;0.50;;;0.50;;
24843;SDS011;12921;51.392;12.240;2023-04-01T00:44:39;1.90;;;0.70;;
24843;SDS011;12921;51.392;12.240;2023-04-01T00:47:05;1.10;;;0.65;;
24843;SDS011;12921;51.392;12.240;2023-04-01T00:49:35;0.68;;;0.68;;
24843;SDS011;12921;51.392;12.240;2023-04-01T00:52:03;0.75;;;0.75;;
24843;SDS011;12921;51.392;12.240;2023-04-01T00:54:30;0.20;;;0.20;;
24843;SDS011;12921;51.392;12.240;2023-04-01T00:56:59;0.68;;;0.50;;
24843;SDS011;12921;51.392;12.240;2023-04-01T00:59:26;3.35;;;3.22;;
24843;SDS011;12921;51.392;12.240;2023-04-01T01:01:54;0.35;;;0.35;;
24843;SDS011;12921;51.392;12.240;2023-04-01T01:04:27;0.10;;;0.10;;
24843;SDS011;12921;51.392;12.240;2023-04-01T01:06:59;0.10;;;0.10;;
24843;SDS011;12921;51.392;12.240;2023-04-01T01:12:01;0.20;;;0.20;;
24843;SDS011;12921;51.392;12.240;2023-04-01T01:17:02;0.25;;;0.25;;
24843;SDS011;12921;51.392;12.240;2023-04-01T01:19:51;2.42;;;1.23;;
24843;SDS011;12921;51.392;12.240;2023-04-01T01:24:52;0.73;;;0.45;;
24843;SDS011;12921;51.392;12.240;2023-04-01T01:27:20;0.28;;;0.28;;
24843;SDS011;12921;51.392;12.240;2023-04-01T01:30:00;1.38;;;0.52;;
24843;SDS011;12921;51.392;12.240;2023-04-01T01:32:44;0.43;;;0.30;;
24843;SDS011;12921;51.392;12.240;2023-04-01T01:35:27;0.40;;;0.40;;
24843;SDS011;12921;51.392;12.240;2023-04-01T01:38:00;0.98;;;0.70;;
24843;SDS011;12921;51.392;12.240;2023-04-01T01:40:27;10.25;;;0.80;;
24843;SDS011;12921;51.392;12.240;2023-04-01T01:42:56;1.75;;;0.70;;
24843;SDS011;12921;51.392;12.240;2023-04-01T01:45:24;0.50;;;0.50;;
24843;SDS011;12921;51.392;12.240;2023-04-01T01:47:51;1.40;;;1.30;;
24843;SDS011;12921;51.392;12.240;2023-04-01T01:50:18;0.22;;;0.22;;
24843;SDS011;12921;51.392;12.240;2023-04-01T01:52:45;0.22;;;0.22;;
24843;SDS011;12921;51.392;12.240;2023-04-01T01:55:25;0.60;;;0.60;;
24843;SDS011;12921;51.392;12.240;2023-04-01T01:57:52;2.20;;;0.77;;
24843;SDS011;12921;51.392;12.240;2023-04-01T02:00:18;1.08;;;0.40;;
24843;SDS011;12921;51.392;12.240;2023-04-01T02:02:46;0.10;;;0.10;;
24843;SDS011;12921;51.392;12.240;2023-04-01T02:05:19;0.25;;;0.25;;
24843;SDS011;12921;51.392;12.240;2023-04-01T02:07:46;5.05;;;0.95;;
24843;SDS011;12921;51.392;12.240;2023-04-01T02:10:14;0.20;;;0.20;;
24843;SDS011;12921;51.392;12.240;2023-04-01T02:12:40;0.25;;;0.25;;
24843;SDS011;12921;51.392;12.240;2023-04-01T02:15:10;0.30;;;0.30;;
24843;SDS011;12921;51.392;12.240;2023-04-01T02:17:39;1.40;;;1.10;;
24843;SDS011;12921;51.392;12.240;2023-04-01T02:20:15;1.90;;;0.50;;
24843;SDS011;12921;51.392;12.240;2023-04-01T02:25:10;5.90;;;1.00;;
24843;SDS011;12921;51.392;12.240;2023-04-01T02:27:37;3.95;;;0.68;;
24843;SDS011;12921;51.392;12.240;2023-04-01T02:30:04;3.38;;;1.00;;
24843;SDS011;12921;51.392;12.240;2023-04-01T02:32:31;1.35;;;0.70;;
24843;SDS011;12921;51.392;12.240;2023-04-01T02:34:58;0.40;;;0.40;;
24843;SDS011;12921;51.392;12.240;2023-04-01T02:37:28;1.17;;;0.63;;
24843;SDS011;12921;51.392;12.240;2023-04-01T02:39:54;1.13;;;0.73;;
24843;SDS011;12921;51.392;12.240;2023-04-01T02:42:24;2.03;;;1.02;;
24843;SDS011;12921;51.392;12.240;2023-04-01T02:44:50;3.53;;;1.40;;
24843;SDS011;12921;51.392;12.240;2023-04-01T02:47:16;4.70;;;0.60;;
24843;SDS011;12921;51.392;12.240;2023-04-01T02:49:42;1.92;;;0.60;;
24843;SDS011;12921;51.392;12.240;2023-04-01T02:52:08;0.50;;;0.50;;
24843;SDS011;12921;51.392;12.240;2023-04-01T02:54:34;3.00;;;0.68;;
24843;SDS011;12921;51.392;12.240;2023-04-01T02:57:00;0.52;;;0.52;;
24843;SDS011;12921;51.392;12.240;2023-04-01T02:59:26;0.98;;;0.68;;
24843;SDS011;12921;51.392;12.240;2023-04-01T03:01:52;5.10;;;1.05;;
24843;SDS011;12921;51.392;12.240;2023-04-01T03:04:18;1.13;;;0.60;;
24843;SDS011;12921;51.392;12.240;2023-04-01T03:06:44;0.90;;;0.90;;
24843;SDS011;12921;51.392;12.240;2023-04-01T03:09:10;4.65;;;0.60;;
24843;SDS011;12921;51.392;12.240;2023-04-01T03:11:37;1.02;;;0.45;;
24843;SDS011;12921;51.392;12.240;2023-04-01T03:14:03;0.65;;;0.63;;
24843;SDS011;12921;51.392;12.240;2023-04-01T03:16:30;1.65;;;0.75;;
24843;SDS011;12921;51.392;12.240;2023-04-01T03:18:56;0.40;;;0.40;;
24843;SDS011;12921;51.392;12.240;2023-04-01T03:21:24;6.60;;;0.55;;
24843;SDS011;12921;51.392;12.240;2023-04-01T03:23:50;0.35;;;0.35;;
24843;SDS011;12921;51.392;12.240;2023-04-01T03:26:16;2.05;;;1.17;;
24843;SDS011;12921;51.392;12.240;2023-04-01T03:28:43;0.57;;;0.57;;
24843;SDS011;12921;51.392;12.240;2023-04-01T03:31:09;0.30;;;0.30;;
24843;SDS011;12921;51.392;12.240;2023-04-01T03:33:35;3.25;;;0.80;;
24843;SDS011;12921;51.392;12.240;2023-04-01T03:36:01;1.42;;;1.20;;
24843;SDS011;12921;51.392;12.240;2023-04-01T03:38:31;1.00;;;1.00;;
24843;SDS011;12921;51.392;12.240;2023-04-01T03:40:57;2.00;;;0.47;;
24843;SDS011;12921;51.392;12.240;2023-04-01T03:43:23;0.30;;;0.30;;
24843;SDS011;12921;51.392;12.240;2023-04-01T03:45:50;0.95;;;0.30;;
24843;SDS011;12921;51.392;12.240;2023-04-01T03:48:16;0.10;;;0.10;;
24843;SDS011;12921;51.392;12.240;2023-04-01T03:50:43;0.15;;;0.15;;
24843;SDS011;12921;51.392;12.240;2023-04-01T03:53:09;0.63;;;0.63;;
24843;SDS011;12921;51.392;12.240;2023-04-01T03:55:36;0.20;;;0.20;;
24843;SDS011;12921;51.392;12.240;2023-04-01T03:58:03;0.50;;;0.50;;
24843;SDS011;12921;51.392;12.240;2023-04-01T04:00:29;0.40;;;0.40;;
24843;SDS011;12921;51.392;12.240;2023-04-01T04:02:55;4.85;;;0.88;;
24843;SDS011;12921;51.392;12.240;2023-04-01T04:05:22;0.40;;;0.40;;
24843;SDS011;12921;51.392;12.240;2023-04-01T04:07:48;0.82;;;0.73;;
24843;SDS011;12921;51.392;12.240;2023-04-01T04:10:14;0.47;;;0.47;;
24843;SDS011;12921;51.392;12.240;2023-04-01T04:12:40;1.50;;;0.57;;
24843;SDS011;12921;51.392;12.240;2023-04-01T04:15:07;10.10;;;1.23;;
24843;SDS011;12921;51.392;12.240;2023-04-01T04:17:33;1.30;;;0.80;;
24843;SDS011;12921;51.392;12.240;2023-04-01T04:19:59;3.50;;;0.50;;
24843;SDS011;12921;51.392;12.240;2023-04-01T04:22:25;1.52;;;0.88;;
24843;SDS011;12921;51.392;12.240;2023-04-01T04:24:51;1.67;;;0.60;;
24843;SDS011;12921;51.392;12.240;2023-04-01T04:27:17;1.92;;;1.10;;
24843;SDS011;12921;51.392;12.240;2023-04-01T04:29:43;0.30;;;0.30;;
24843;SDS011;12921;51.392;12.240;2023-04-01T04:32:09;1.08;;;0.38;;
24843;SDS011;12921;51.392;12.240;2023-04-01T04:34:35;0.50;;;0.50;;
24843;SDS011;12921;51.392;12.240;2023-04-01T04:37:02;0.52;;;0.52;;
24843;SDS011;12921;51.392;12.240;2023-04-01T04:39:29;0.75;;;0.38;;
24843;SDS011;12921;51.392;12.240;2023-04-01T04:41:55;1.58;;;0.25;;
24843;SDS011;12921;51.392;12.240;2023-04-01T04:44:22;1.83;;;0.65;;
24843;SDS011;12921;51.392;12.240;2023-04-01T04:46:48;0.47;;;0.47;;
24843;SDS011;12921;51.392;12.240;2023-04-01T04:49:14;0.60;;;0.60;;
24843;SDS011;12921;51.392;12.240;2023-04-01T04:51:40;0.60;;;0.60;;
24843;SDS011;12921;51.392;12.240;2023-04-01T04:54:06;0.65;;;0.57;;
24843;SDS011;12921;51.392;12.240;2023-04-01T04:56:33;0.52;;;0.52;;
24843;SDS011;12921;51.392;12.240;2023-04-01T04:58:59;0.28;;;0.28;;
24843;SDS011;12921;51.392;12.240;2023-04-01T05:01:25;0.63;;;0.57;;
24843;SDS011;12921;51.392;12.240;2023-04-01T05:03:51;0.30;;;0.30;;
24843;SDS011;12921;51.392;12.240;2023-04-01T05:06:17;6.47;;;1.08;;
24843;SDS011;12921;51.392;12.240;2023-04-01T05:08:44;0.50;;;0.50;;
24843;SDS011;12921;51.392;12.240;2023-04-01T05:11:14;1.25;;;1.00;;
24843;SDS011;12921;51.392;12.240;2023-04-01T05:13:41;0.20;;;0.20;;
24843;SDS011;12921;51.392;12.240;2023-04-01T05:16:11;0.20;;;0.20;;
24843;SDS011;12921;51.392;12.240;2023-04-01T05:18:37;0.65;;;0.65;;
24843;SDS011;12921;51.392;12.240;2023-04-01T05:21:03;0.75;;;0.75;;
24843;SDS011;12921;51.392;12.240;2023-04-01T05:23:31;1.40;;;0.65;;
24843;SDS011;12921;51.392;12.240;2023-04-01T05:25:58;0.70;;;0.70;;
24843;SDS011;12921;51.392;12.240;2023-04-01T05:28:24;1.13;;;1.05;;
24843;SDS011;12921;51.392;12.240;2023-04-01T05:30:50;0.73;;;0.73;;
24843;SDS011;12921;51.392;12.240;2023-04-01T05:33:16;9.93;;;0.88;;
24843;SDS011;12921;51.392;12.240;2023-04-01T05:35:42;1.45;;;0.70;;
24843;SDS011;12921;51.392;12.240;2023-04-01T05:38:08;4.40;;;0.80;;
24843;SDS011;12921;51.392;12.240;2023-04-01T05:40:34;0.30;;;0.30;;
24843;SDS011;12921;51.392;12.240;2023-04-01T05:43:00;1.40;;;1.00;;
24843;SDS011;12921;51.392;12.240;2023-04-01T05:45:27;1.02;;;0.88;;
24843;SDS011;12921;51.392;12.240;2023-04-01T05:47:53;0.80;;;0.50;;
24843;SDS011;12921;51.392;12.240;2023-04-01T05:50:19;0.40;;;0.40;;
24843;SDS011;12921;51.392;12.240;2023-04-01T05:52:45;1.70;;;0.88;;
24843;SDS011;12921;51.392;12.240;2023-04-01T05:55:11;0.55;;;0.50;;
24843;SDS011;12921;51.392;12.240;2023-04-01T05:57:37;2.00;;;0.50;;
24843;SDS011;12921;51.392;12.240;2023-04-01T06:00:03;12.75;;;1.15;;
24843;SDS011;12921;51.392;12.240;2023-04-01T06:02:30;1.17;;;0.52;;
24843;SDS011;12921;51.392;12.240;2023-04-01T06:05:18;0.40;;;0.40;;
24843;SDS011;12921;51.392;12.240;2023-04-01T06:07:42;0.20;;;0.20;;
24843;SDS011;12921;51.392;12.240;2023-04-01T06:10:16;0.20;;;0.20;;
24843;SDS011;12921;51.392;12.240;2023-04-01T06:12:50;0.35;;;0.35;;
24843;SDS011;12921;51.392;12.240;2023-04-01T06:15:20;0.65;;;0.60;;
24843;SDS011;12921;51.392;12.240;2023-04-01T06:20:34;0.30;;;0.30;;
24843;SDS011;12921;51.392;12.240;2023-04-01T06:23:06;0.22;;;0.22;;
24843;SDS011;12921;51.392;12.240;2023-04-01T06:38:11;0.20;;;0.20;;
24843;SDS011;12921;51.392;12.240;2023-04-01T06:40:49;0.60;;;0.57;;
24843;SDS011;12921;51.392;12.240;2023-04-01T06:50:57;0.52;;;0.52;;
24843;SDS011;12921;51.392;12.240;2023-04-01T06:53:42;0.52;;;0.52;;
24843;SDS011;12921;51.392;12.240;2023-04-01T06:56:12;5.15;;;0.90;;
24843;SDS011;12921;51.392;12.240;2023-04-01T06:58:43;1.15;;;0.60;;
24843;SDS011;12921;51.392;12.240;2023-04-01T07:01:13;0.65;;;0.43;;
24843;SDS011;12921;51.392;12.240;2023-04-01T07:03:41;3.45;;;0.70;;
24843;SDS011;12921;51.392;12.240;2023-04-01T07:06:11;2.45;;;0.95;;
24843;SDS011;12921;51.392;12.240;2023-04-01T07:08:40;0.98;;;0.52;;
24843;SDS011;12921;51.392;12.240;2023-04-01T07:11:11;1.40;;;0.60;;
24843;SDS011;12921;51.392;12.240;2023-04-01T07:13:51;0.30;;;0.30;;
24843;SDS011;12921;51.392;12.240;2023-04-01T07:16:20;1.52;;;0.70;;
24843;SDS011;12921;51.392;12.240;2023-04-01T07:21:35;0.25;;;0.25;;
24843;SDS011;12921;51.392;12.240;2023-04-01T07:24:21;0.10;;;0.10;;
24843;SDS011;12921;51.392;12.240;2023-04-01T07:26:48;3.15;;;0.55;;
24843;SDS011;12921;51.392;12.240;2023-04-01T07:29:18;2.13;;;0.73;;
24843;SDS011;12921;51.392;12.240;2023-04-01T07:34:12;1.67;;;0.63;;
24843;SDS011;12921;51.392;12.240;2023-04-01T07:39:30;3.47;;;3.20;;
24843;SDS011;12921;51.392;12.240;2023-04-01T07:42:09;1.92;;;1.02;;
24843;SDS011;12921;51.392;12.240;2023-04-01T07:47:14;12.80;;;1.73;;
24843;SDS011;12921;51.392;12.240;2023-04-01T07:52:33;5.85;;;2.63;;
24843;SDS011;12921;51.392;12.240;2023-04-01T07:57:48;0.98;;;0.73;;
24843;SDS011;12921;51.392;12.240;2023-04-01T08:05:30;0.77;;;0.60;;
24843;SDS011;12921;51.392;12.240;2023-04-01T08:08:48;3.00;;;0.75;;
24843;SDS011;12921;51.392;12.240;2023-04-01T08:18:32;0.30;;;0.30;;
24843;SDS011;12921;51.392;12.240;2023-04-01T08:21:01;2.65;;;0.28;;
24843;SDS011;12921;51.392;12.240;2023-04-01T08:23:32;1.25;;;0.65;;
24843;SDS011;12921;51.392;12.240;2023-04-01T08:28:44;1.48;;;0.60;;
24843;SDS011;12921;51.392;12.240;2023-04-01T08:31:13;2.67;;;0.68;;
24843;SDS011;12921;51.392;12.240;2023-04-01T08:33:41;1.60;;;0.28;;
24843;SDS011;12921;51.392;12.240;2023-04-01T08:38:42;2.58;;;0.88;;
24843;SDS011;12921;51.392;12.240;2023-04-01T08:54:03;2.30;;;0.68;;
24843;SDS011;12921;51.392;12.240;2023-04-01T08:56:34;0.50;;;0.47;;
24843;SDS011;12921;51.392;12.240;2023-04-01T08:59:11;0.20;;;0.20;;
24843;SDS011;12921;51.392;12.240;2023-04-01T09:04:35;0.50;;;0.50;;
24843;SDS011;12921;51.392;12.240;2023-04-01T09:10:06;0.43;;;0.20;;
24843;SDS011;12921;51.392;12.240;2023-04-01T09:25:14;0.65;;;0.40;;
24843;SDS011;12921;51.392;12.240;2023-04-01T09:35:38;0.30;;;0.30;;
24843;SDS011;12921;51.392;12.240;2023-04-01T09:40:33;2.03;;;0.75;;
24843;SDS011;12921;51.392;12.240;2023-04-01T09:45:47;0.37;;;0.30;;
24843;SDS011;12921;51.392;12.240;2023-04-01T09:51:01;0.32;;;0.32;;
24843;SDS011;12921;51.392;12.240;2023-04-01T10:01:49;0.30;;;0.30;;
24843;SDS011;12921;51.392;12.240;2023-04-01T10:12:23;0.93;;;0.50;;
24843;SDS011;12921;51.392;12.240;2023-04-01T10:22:58;0.43;;;0.30;;
24843;SDS011;12921;51.392;12.240;2023-04-01T10:25:45;0.10;;;0.10;;
24843;SDS011;12921;51.392;12.240;2023-04-01T10:39:10;0.88;;;0.30;;
24843;SDS011;12921;51.392;12.240;2023-04-01T10:52:12;0.10;;;0.10;;
24843;SDS011;12921;51.392;12.240;2023-04-01T11:15:44;0.38;;;0.30;;
24843;SDS011;12921;51.392;12.240;2023-04-01T11:18:24;0.20;;;0.20;;
24843;SDS011;12921;51.392;12.240;2023-04-01T11:23:43;0.10;;;0.10;;
24843;SDS011;12921;51.392;12.240;2023-04-01T11:26:16;0.20;;;0.20;;
24843;SDS011;12921;51.392;12.240;2023-04-01T11:31:17;0.20;;;0.20;;
24843;SDS011;12921;51.392;12.240;2023-04-01T11:48:58;0.20;;;0.20;;
24843;SDS011;12921;51.392;12.240;2023-04-01T11:56:46;0.55;;;0.47;;
24843;SDS011;12921;51.392;12.240;2023-04-01T12:00:20;0.38;;;0.35;;
24843;SDS011;12921;51.392;12.240;2023-04-01T12:08:29;1.45;;;0.30;;
24843;SDS011;12921;51.392;12.240;2023-04-01T12:10:21;0.10;;;0.10;;
24843;SDS011;12921;51.392;12.240;2023-04-01T12:15:36;0.10;;;0.10;;
24843;SDS011;12921;51.392;12.240;2023-04-01T12:20:50;0.22;;;0.22;;
24843;SDS011;12921;51.392;12.240;2023-04-01T12:28:45;0.80;;;0.52;;
24843;SDS011;12921;51.392;12.240;2023-04-01T12:31:18;3.05;;;0.68;;
24843;SDS011;12921;51.392;12.240;2023-04-01T12:33:59;0.30;;;0.30;;
24843;SDS011;12921;51.392;12.240;2023-04-01T12:52:07;0.73;;;0.55;;
24843;SDS011;12921;51.392;12.240;2023-04-01T13:05:19;0.30;;;0.30;;
24843;SDS011;12921;51.392;12.240;2023-04-01T13:15:29;0.50;;;0.47;;
24843;SDS011;12921;51.392;12.240;2023-04-01T13:20:43;0.30;;;0.30;;
24843;SDS011;12921;51.392;12.240;2023-04-01T13:23:13;0.57;;;0.57;;
24843;SDS011;12921;51.392;12.240;2023-04-01T13:28:28;1.95;;;0.30;;
24843;SDS011;12921;51.392;12.240;2023-04-01T13:30:59;0.22;;;0.22;;
24843;SDS011;12921;51.392;12.240;2023-04-01T13:33:32;0.93;;;0.40;;
24843;SDS011;12921;51.392;12.240;2023-04-01T13:41:25;0.20;;;0.20;;
24843;SDS011;12921;51.392;12.240;2023-04-01T13:51:43;0.38;;;0.30;;
24843;SDS011;12921;51.392;12.240;2023-04-01T14:05:19;0.60;;;0.60;;
24843;SDS011;12921;51.392;12.240;2023-04-01T14:10:38;0.10;;;0.10;;
24843;SDS011;12921;51.392;12.240;2023-04-01T14:13:15;0.10;;;0.10;;
24843;SDS011;12921;51.392;12.240;2023-04-01T14:18:32;0.10;;;0.10;;
24843;SDS011;12921;51.392;12.240;2023-04-01T14:23:49;0.20;;;0.20;;
24843;SDS011;12921;51.392;12.240;2023-04-01T14:31:43;0.40;;;0.40;;
24843;SDS011;12921;51.392;12.240;2023-04-01T14:34:20;0.10;;;0.10;;
24843;SDS011;12921;51.392;12.240;2023-04-01T14:47:24;0.70;;;0.70;;
24843;SDS011;12921;51.392;12.240;2023-04-01T14:50:02;1.25;;;0.80;;
24843;SDS011;12921;51.392;12.240;2023-04-01T14:52:32;0.40;;;0.40;;
24843;SDS011;12921;51.392;12.240;2023-04-01T14:54:59;1.60;;;1.10;;
24843;SDS011;12921;51.392;12.240;2023-04-01T14:57:29;3.13;;;1.63;;
24843;SDS011;12921;51.392;12.240;2023-04-01T15:00:00;0.30;;;0.30;;
24843;SDS011;12921;51.392;12.240;2023-04-01T15:05:27;1.15;;;1.02;;
24843;SDS011;12921;51.392;12.240;2023-04-01T15:07:49;0.63;;;0.60;;
24843;SDS011;12921;51.392;12.240;2023-04-01T15:12:54;1.25;;;0.73;;
24843;SDS011;12921;51.392;12.240;2023-04-01T15:18:08;1.30;;;0.70;;
24843;SDS011;12921;51.392;12.240;2023-04-01T15:30:39;0.20;;;0.20;;
24843;SDS011;12921;51.392;12.240;2023-04-01T15:38:33;0.20;;;0.20;;
24843;SDS011;12921;51.392;12.240;2023-04-01T15:43:43;0.98;;;0.75;;
24843;SDS011;12921;51.392;12.240;2023-04-01T15:46:21;0.10;;;0.10;;
24843;SDS011;12921;51.392;12.240;2023-04-01T15:56:28;0.20;;;0.20;;
24843;SDS011;12921;51.392;12.240;2023-04-01T16:04:06;0.20;;;0.20;;
24843;SDS011;12921;51.392;12.240;2023-04-01T16:06:46;0.10;;;0.10;;
24843;SDS011;12921;51.392;12.240;2023-04-01T16:11:48;0.17;;;0.17;;
24843;SDS011;12921;51.392;12.240;2023-04-01T16:14:32;0.10;;;0.10;;
24843;SDS011;12921;51.392;12.240;2023-04-01T16:21:58;0.10;;;0.10;;
24843;SDS011;12921;51.392;12.240;2023-04-01T16:24:43;0.17;;;0.17;;
24843;SDS011;12921;51.392;12.240;2023-04-01T16:27:15;0.13;;;0.13;;
24843;SDS011;12921;51.392;12.240;2023-04-01T16:29:46;0.10;;;0.10;;
24843;SDS011;12921;51.392;12.240;2023-04-01T16:32:35;0.10;;;0.10;;
24843;SDS011;12921;51.392;12.240;2023-04-01T16:35:14;0.10;;;0.10;;
24843;SDS011;12921;51.392;12.240;2023-04-01T16:37:47;0.10;;;0.10;;
24843;SDS011;12921;51.392;12.240;2023-04-01T16:53:37;0.10;;;0.10;;
24843;SDS011;12921;51.392;12.240;2023-04-01T16:56:14;0.10;;;0.10;;
24843;SDS011;12921;51.392;12.240;2023-04-01T17:01:21;0.20;;;0.20;;
24843;SDS011;12921;51.392;12.240;2023-04-01T17:03:57;1.60;;;1.42;;
24843;SDS011;12921;51.392;12.240;2023-04-01T17:09:37;0.90;;;0.90;;
24843;SDS011;12921;51.392;12.240;2023-04-01T17:12:05;0.20;;;0.20;;
24843;SDS011;12921;51.392;12.240;2023-04-01T17:25:14;0.10;;;0.10;;
24843;SDS011;12921;51.392;12.240;2023-04-01T17:38:13;0.20;;;0.20;;
24843;SDS011;12921;51.392;12.240;2023-04-01T17:40:57;0.13;;;0.13;;
24843;SDS011;12921;51.392;12.240;2023-04-01T17:43:41;0.20;;;0.20;;
24843;SDS011;12921;51.392;12.240;2023-04-01T17:46:32;0.40;;;0.40;;
24843;SDS011;12921;51.392;12.240;2023-04-01T17:51:33;0.88;;;0.88;;
24843;SDS011;12921;51.392;12.240;2023-04-01T17:54:18;1.35;;;1.00;;
24843;SDS011;12921;51.392;12.240;2023-04-01T18:10:05;0.47;;;0.47;;
24843;SDS011;12921;51.392;12.240;2023-04-01T18:12:56;0.87;;;0.87;;
24843;SDS011;12921;51.392;12.240;2023-04-01T18:25:44;0.20;;;0.20;;
24843;SDS011;12921;51.392;12.240;2023-04-01T18:28:30;0.63;;;0.40;;
24843;SDS011;12921;51.392;12.240;2023-04-01T18:38:29;1.00;;;1.00;;
24843;SDS011;12921;51.392;12.240;2023-04-01T18:44:07;0.35;;;0.35;;
24843;SDS011;12921;51.392;12.240;2023-04-01T18:46:32;1.23;;;0.98;;
24843;SDS011;12921;51.392;12.240;2023-04-01T18:49:13;1.00;;;1.00;;
24843;SDS011;12921;51.392;12.240;2023-04-01T18:57:14;0.50;;;0.50;;
24843;SDS011;12921;51.392;12.240;2023-04-01T18:59:53;1.48;;;1.00;;
24843;SDS011;12921;51.392;12.240;2023-04-01T19:07:47;2.63;;;1.77;;
24843;SDS011;12921;51.392;12.240;2023-04-01T19:15:44;1.98;;;0.95;;
24843;SDS011;12921;51.392;12.240;2023-04-01T19:18:34;1.20;;;1.10;;
24843;SDS011;12921;51.392;12.240;2023-04-01T19:21:22;1.85;;;1.45;;
24843;SDS011;12921;51.392;12.240;2023-04-01T19:24:01;1.52;;;1.42;;
24843;SDS011;12921;51.392;12.240;2023-04-01T19:28:56;1.08;;;1.08;;
24843;SDS011;12921;51.392;12.240;2023-04-01T19:31:47;0.73;;;0.73;;
24843;SDS011;12921;51.392;12.240;2023-04-01T19:37:02;3.13;;;1.23;;
24843;SDS011;12921;51.392;12.240;2023-04-01T19:42:14;2.25;;;1.60;;
24843;SDS011;12921;51.392;12.240;2023-04-01T19:48:01;2.00;;;1.35;;
24843;SDS011;12921;51.392;12.240;2023-04-01T19:50:37;1.63;;;1.10;;
24843;SDS011;12921;51.392;12.240;2023-04-01T19:53:17;1.63;;;1.35;;
24843;SDS011;12921;51.392;12.240;2023-04-01T19:55:48;2.50;;;1.27;;
24843;SDS011;12921;51.392;12.240;2023-04-01T20:00:57;2.53;;;2.33;;
24843;SDS011;12921;51.392;12.240;2023-04-01T20:06:20;3.08;;;2.28;;
24843;SDS011;12921;51.392;12.240;2023-04-01T20:09:11;3.17;;;2.13;;
24843;SDS011;12921;51.392;12.240;2023-04-01T20:14:21;1.67;;;1.58;;
24843;SDS011;12921;51.392;12.240;2023-04-01T20:16:55;2.67;;;2.42;;
24843;SDS011;12921;51.392;12.240;2023-04-01T20:19:25;2.97;;;2.00;;
24843;SDS011;12921;51.392;12.240;2023-04-01T20:21:52;3.80;;;2.17;;
24843;SDS011;12921;51.392;12.240;2023-04-01T20:24:33;3.40;;;2.53;;
24843;SDS011;12921;51.392;12.240;2023-04-01T20:27:14;1.90;;;1.30;;
24843;SDS011;12921;51.392;12.240;2023-04-01T20:37:41;6.68;;;4.45;;
24843;SDS011;12921;51.392;12.240;2023-04-01T20:48:17;5.82;;;3.35;;
24843;SDS011;12921;51.392;12.240;2023-04-01T21:00:51;2.85;;;2.47;;
24843;SDS011;12921;51.392;12.240;2023-04-01T21:03:23;8.23;;;2.70;;
24843;SDS011;12921;51.392;12.240;2023-04-01T21:05:58;1.17;;;1.13;;
24843;SDS011;12921;51.392;12.240;2023-04-01T21:16:13;5.70;;;4.00;;
24843;SDS011;12921;51.392;12.240;2023-04-01T21:23:58;6.05;;;4.18;;
24843;SDS011;12921;51.392;12.240;2023-04-01T21:26:43;5.03;;;2.97;;
24843;SDS011;12921;51.392;12.240;2023-04-01T21:38:03;2.53;;;2.30;;
24843;SDS011;12921;51.392;12.240;2023-04-01T21:45:13;4.40;;;3.08;;
24843;SDS011;12921;51.392;12.240;2023-04-01T21:53:44;5.53;;;3.85;;
24843;SDS011;12921;51.392;12.240;2023-04-01T22:09:02;6.10;;;4.63;;
24843;SDS011;12921;51.392;12.240;2023-04-01T22:11:50;4.78;;;4.05;;
24843;SDS011;12921;51.392;12.240;2023-04-01T22:16:58;4.90;;;2.92;;
24843;SDS011;12921;51.392;12.240;2023-04-01T22:19:39;4.70;;;3.70;;
24843;SDS011;12921;51.392;12.240;2023-04-01T22:22:10;7.82;;;5.22;;
24843;SDS011;12921;51.392;12.240;2023-04-01T22:24:44;5.03;;;3.13;;
24843;SDS011;12921;51.392;12.240;2023-04-01T22:27:15;6.90;;;4.57;;
24843;SDS011;12921;51.392;12.240;2023-04-01T22:32:20;4.15;;;2.95;;
24843;SDS011;12921;51.392;12.240;2023-04-01T22:43:00;7.35;;;5.45;;
24843;SDS011;12921;51.392;12.240;2023-04-01T22:48:07;5.35;;;3.13;;
24843;SDS011;12921;51.392;12.240;2023-04-01T22:50:36;7.80;;;4.72;;
24843;SDS011;12921;51.392;12.240;2023-04-01T22:55:38;5.63;;;4.50;;
24843;SDS011;12921;51.392;12.240;2023-04-01T22:58:10;4.30;;;3.28;;
24843;SDS011;12921;51.392;12.240;2023-04-01T23:00:43;7.50;;;4.80;;
24843;SDS011;12921;51.392;12.240;2023-04-01T23:06:00;8.73;;;5.03;;
24843;SDS011;12921;51.392;12.240;2023-04-01T23:11:33;3.72;;;3.05;;
24843;SDS011;12921;51.392;12.240;2023-04-01T23:19:17;9.15;;;6.35;;
24843;SDS011;12921;51.392;12.240;2023-04-01T23:21:48;4.50;;;3.47;;
24843;SDS011;12921;51.392;12.240;2023-04-01T23:24:19;5.80;;;4.93;;
24843;SDS011;12921;51.392;12.240;2023-04-01T23:26:52;4.78;;;2.88;;
24843;SDS011;12921;51.392;12.240;2023-04-01T23:29:21;4.47;;;2.75;;
24843;SDS011;12921;51.392;12.240;2023-04-01T23:31:49;10.45;;;4.60;;
24843;SDS011;12921;51.392;12.240;2023-04-01T23:34:23;6.18;;;3.13;;
24843;SDS011;12921;51.392;12.240;2023-04-01T23:36:51;6.68;;;3.80;;
24843;SDS011;12921;51.392;12.240;2023-04-01T23:41:47;6.57;;;5.20;;
24843;SDS011;12921;51.392;12.240;2023-04-01T23:44:13;2.63;;;1.83;;
24843;SDS011;12921;51.392;12.240;2023-04-01T23:46:41;3.38;;;2.80;;
24843;SDS011;12921;51.392;12.240;2023-04-01T23:49:13;3.40;;;2.30;;
24843;SDS011;12921;51.392;12.240;2023-04-01T23:51:48;7.38;;;4.45;;
24843;SDS011;12921;51.392;12.240;2023-04-01T23:54:32;5.53;;;4.45;;
24843;SDS011;12921;51.392;12.240;2023-04-01T23:56:59;3.30;;;1.23;;
24843;SDS011;12921;51.392;12.240;2023-04-01T23:59:31;4.30;;;3.67;;
